sensor_id;sensor_type;location;lat;lon;timestamp;P1;durP1;ratioP1;P2;durP2;ratioP2
43620;SDS011;29213;50.770;7.298;2023-05-07T00:00:16;4.25;;;1.90;;
43620;SDS011;29213;50.770;7.298;2023-05-07T00:02:44;3.42;;;1.80;;
43620;SDS011;29213;50.770;7.298;2023-05-07T00:05:10;2.70;;;1.63;;
43620;SDS011;29213;50.770;7.298;2023-05-07T00:07:36;5.63;;;2.42;;
43620;SDS011;29213;50.770;7.298;2023-05-07T00:10:01;5.38;;;2.72;;
43620;SDS011;29213;50.770;7.298;2023-05-07T00:12:27;3.78;;;2.10;;
43620;SDS011;29213;50.770;7.298;2023-05-07T00:14:56;3.65;;;2.13;;
43620;SDS011;29213;50.770;7.298;2023-05-07T00:17:22;4.50;;;1.90;;
43620;SDS011;29213;50.770;7.298;2023-05-07T00:19:48;3.55;;;1.70;;
43620;SDS011;29213;50.770;7.298;2023-05-07T00:22:13;4.75;;;2.00;;
43620;SDS011;29213;50.770;7.298;2023-05-07T00:24:38;5.43;;;2.15;;
43620;SDS011;29213;50.770;7.298;2023-05-07T00:27:04;4.30;;;2.08;;
43620;SDS011;29213;50.770;7.298;2023-05-07T00:29:30;4.15;;;2.00;;
43620;SDS011;29213;50.770;7.298;2023-05-07T00:31:55;3.70;;;1.85;;
43620;SDS011;29213;50.770;7.298;2023-05-07T00:34:20;3.50;;;2.00;;
43620;SDS011;29213;50.770;7.298;2023-05-07T00:36:46;3.35;;;2.00;;
43620;SDS011;29213;50.770;7.298;2023-05-07T00:39:11;4.00;;;2.08;;
43620;SDS011;29213;50.770;7.298;2023-05-07T00:41:37;4.00;;;2.00;;
43620;SDS011;29213;50.770;7.298;2023-05-07T00:44:02;3.60;;;2.20;;
43620;SDS011;29213;50.770;7.298;2023-05-07T00:46:28;3.92;;;2.13;;
43620;SDS011;29213;50.770;7.298;2023-05-07T00:48:55;4.30;;;2.10;;
43620;SDS011;29213;50.770;7.298;2023-05-07T00:51:20;3.78;;;2.00;;
43620;SDS011;29213;50.770;7.298;2023-05-07T00:53:48;3.72;;;2.15;;
43620;SDS011;29213;50.770;7.298;2023-05-07T00:56:14;3.72;;;2.00;;
43620;SDS011;29213;50.770;7.298;2023-05-07T00:58:40;5.13;;;2.47;;
43620;SDS011;29213;50.770;7.298;2023-05-07T01:01:06;4.07;;;2.22;;
43620;SDS011;29213;50.770;7.298;2023-05-07T01:03:31;4.35;;;2.40;;
43620;SDS011;29213;50.770;7.298;2023-05-07T01:05:57;5.65;;;2.33;;
43620;SDS011;29213;50.770;7.298;2023-05-07T01:08:25;6.30;;;2.85;;
43620;SDS011;29213;50.770;7.298;2023-05-07T01:10:53;4.13;;;2.70;;
43620;SDS011;29213;50.770;7.298;2023-05-07T01:13:20;4.97;;;2.55;;
43620;SDS011;29213;50.770;7.298;2023-05-07T01:15:46;4.85;;;2.90;;
43620;SDS011;29213;50.770;7.298;2023-05-07T01:18:11;4.13;;;2.60;;
43620;SDS011;29213;50.770;7.298;2023-05-07T01:20:39;4.15;;;2.65;;
43620;SDS011;29213;50.770;7.298;2023-05-07T01:23:04;5.50;;;2.70;;
43620;SDS011;29213;50.770;7.298;2023-05-07T01:25:32;4.97;;;2.55;;
43620;SDS011;29213;50.770;7.298;2023-05-07T01:27:58;4.45;;;2.75;;
43620;SDS011;29213;50.770;7.298;2023-05-07T01:30:26;6.25;;;2.70;;
43620;SDS011;29213;50.770;7.298;2023-05-07T01:32:53;4.75;;;2.60;;
43620;SDS011;29213;50.770;7.298;2023-05-07T01:35:30;4.43;;;2.90;;
43620;SDS011;29213;50.770;7.298;2023-05-07T01:38:01;4.97;;;2.60;;
43620;SDS011;29213;50.770;7.298;2023-05-07T01:40:29;4.28;;;2.35;;
43620;SDS011;29213;50.770;7.298;2023-05-07T01:42:55;4.50;;;2.65;;
43620;SDS011;29213;50.770;7.298;2023-05-07T01:45:21;3.85;;;2.20;;
43620;SDS011;29213;50.770;7.298;2023-05-07T01:47:46;4.05;;;2.60;;
43620;SDS011;29213;50.770;7.298;2023-05-07T01:50:12;5.18;;;2.50;;
43620;SDS011;29213;50.770;7.298;2023-05-07T01:52:41;3.97;;;2.42;;
43620;SDS011;29213;50.770;7.298;2023-05-07T01:55:07;3.53;;;2.40;;
43620;SDS011;29213;50.770;7.298;2023-05-07T01:57:32;5.00;;;2.60;;
43620;SDS011;29213;50.770;7.298;2023-05-07T01:59:58;5.45;;;2.67;;
43620;SDS011;29213;50.770;7.298;2023-05-07T02:02:23;4.57;;;2.50;;
43620;SDS011;29213;50.770;7.298;2023-05-07T02:04:49;4.53;;;2.50;;
43620;SDS011;29213;50.770;7.298;2023-05-07T02:07:14;4.22;;;2.50;;
43620;SDS011;29213;50.770;7.298;2023-05-07T02:09:39;4.10;;;2.60;;
43620;SDS011;29213;50.770;7.298;2023-05-07T02:12:05;4.88;;;2.97;;
43620;SDS011;29213;50.770;7.298;2023-05-07T02:14:30;4.80;;;2.53;;
43620;SDS011;29213;50.770;7.298;2023-05-07T02:16:56;3.92;;;2.20;;
43620;SDS011;29213;50.770;7.298;2023-05-07T02:19:21;4.72;;;2.78;;
43620;SDS011;29213;50.770;7.298;2023-05-07T02:21:46;5.00;;;2.80;;
43620;SDS011;29213;50.770;7.298;2023-05-07T02:24:12;4.30;;;2.58;;
43620;SDS011;29213;50.770;7.298;2023-05-07T02:26:39;4.75;;;2.53;;
43620;SDS011;29213;50.770;7.298;2023-05-07T02:29:06;4.30;;;2.40;;
43620;SDS011;29213;50.770;7.298;2023-05-07T02:31:31;5.72;;;2.63;;
43620;SDS011;29213;50.770;7.298;2023-05-07T02:33:58;4.03;;;2.40;;
43620;SDS011;29213;50.770;7.298;2023-05-07T02:36:24;4.38;;;2.47;;
43620;SDS011;29213;50.770;7.298;2023-05-07T02:38:50;3.92;;;2.33;;
43620;SDS011;29213;50.770;7.298;2023-05-07T02:41:16;3.83;;;2.28;;
43620;SDS011;29213;50.770;7.298;2023-05-07T02:43:41;5.07;;;2.60;;
43620;SDS011;29213;50.770;7.298;2023-05-07T02:46:07;4.30;;;2.42;;
43620;SDS011;29213;50.770;7.298;2023-05-07T02:48:33;5.45;;;2.60;;
43620;SDS011;29213;50.770;7.298;2023-05-07T02:50:59;4.00;;;2.30;;
43620;SDS011;29213;50.770;7.298;2023-05-07T02:53:25;4.88;;;2.53;;
43620;SDS011;29213;50.770;7.298;2023-05-07T02:55:54;3.92;;;2.50;;
43620;SDS011;29213;50.770;7.298;2023-05-07T02:58:21;3.92;;;2.42;;
43620;SDS011;29213;50.770;7.298;2023-05-07T03:00:46;5.80;;;2.30;;
43620;SDS011;29213;50.770;7.298;2023-05-07T03:03:12;4.65;;;2.45;;
43620;SDS011;29213;50.770;7.298;2023-05-07T03:05:38;3.92;;;2.20;;
43620;SDS011;29213;50.770;7.298;2023-05-07T03:08:03;3.72;;;2.13;;
43620;SDS011;29213;50.770;7.298;2023-05-07T03:10:29;4.03;;;2.20;;
43620;SDS011;29213;50.770;7.298;2023-05-07T03:12:55;4.05;;;2.05;;
43620;SDS011;29213;50.770;7.298;2023-05-07T03:15:21;4.03;;;2.42;;
43620;SDS011;29213;50.770;7.298;2023-05-07T03:17:47;3.85;;;2.05;;
43620;SDS011;29213;50.770;7.298;2023-05-07T03:20:13;4.65;;;2.40;;
43620;SDS011;29213;50.770;7.298;2023-05-07T03:22:38;4.10;;;2.40;;
43620;SDS011;29213;50.770;7.298;2023-05-07T03:25:04;3.72;;;2.22;;
43620;SDS011;29213;50.770;7.298;2023-05-07T03:27:30;4.13;;;2.33;;
43620;SDS011;29213;50.770;7.298;2023-05-07T03:29:55;4.93;;;2.10;;
43620;SDS011;29213;50.770;7.298;2023-05-07T03:32:21;3.88;;;2.20;;
43620;SDS011;29213;50.770;7.298;2023-05-07T03:34:46;3.55;;;2.08;;
43620;SDS011;29213;50.770;7.298;2023-05-07T03:37:12;4.25;;;2.20;;
43620;SDS011;29213;50.770;7.298;2023-05-07T03:39:37;3.63;;;2.17;;
43620;SDS011;29213;50.770;7.298;2023-05-07T03:42:02;3.85;;;1.90;;
43620;SDS011;29213;50.770;7.298;2023-05-07T03:44:28;3.88;;;2.30;;
43620;SDS011;29213;50.770;7.298;2023-05-07T03:46:54;3.33;;;1.92;;
43620;SDS011;29213;50.770;7.298;2023-05-07T03:49:20;3.55;;;2.30;;
43620;SDS011;29213;50.770;7.298;2023-05-07T03:51:46;4.75;;;2.40;;
43620;SDS011;29213;50.770;7.298;2023-05-07T03:54:11;3.72;;;2.30;;
43620;SDS011;29213;50.770;7.298;2023-05-07T03:56:37;4.05;;;2.30;;
43620;SDS011;29213;50.770;7.298;2023-05-07T03:59:02;3.70;;;2.00;;
43620;SDS011;29213;50.770;7.298;2023-05-07T04:01:27;5.22;;;2.60;;
43620;SDS011;29213;50.770;7.298;2023-05-07T04:03:53;3.60;;;2.20;;
43620;SDS011;29213;50.770;7.298;2023-05-07T04:06:19;3.58;;;2.20;;
43620;SDS011;29213;50.770;7.298;2023-05-07T04:08:44;4.95;;;2.17;;
43620;SDS011;29213;50.770;7.298;2023-05-07T04:11:09;5.45;;;2.30;;
43620;SDS011;29213;50.770;7.298;2023-05-07T04:13:35;3.42;;;2.20;;
43620;SDS011;29213;50.770;7.298;2023-05-07T04:16:05;3.28;;;2.00;;
43620;SDS011;29213;50.770;7.298;2023-05-07T04:18:31;3.45;;;2.00;;
43620;SDS011;29213;50.770;7.298;2023-05-07T04:20:56;2.97;;;1.75;;
43620;SDS011;29213;50.770;7.298;2023-05-07T04:23:22;3.58;;;2.00;;
43620;SDS011;29213;50.770;7.298;2023-05-07T04:25:47;4.43;;;2.50;;
43620;SDS011;29213;50.770;7.298;2023-05-07T04:28:13;3.10;;;1.95;;
43620;SDS011;29213;50.770;7.298;2023-05-07T04:30:39;2.80;;;1.77;;
43620;SDS011;29213;50.770;7.298;2023-05-07T04:33:04;4.38;;;2.20;;
43620;SDS011;29213;50.770;7.298;2023-05-07T04:35:31;3.05;;;2.03;;
43620;SDS011;29213;50.770;7.298;2023-05-07T04:37:57;4.18;;;2.13;;
43620;SDS011;29213;50.770;7.298;2023-05-07T04:40:23;3.83;;;2.03;;
43620;SDS011;29213;50.770;7.298;2023-05-07T04:42:48;3.88;;;2.10;;
43620;SDS011;29213;50.770;7.298;2023-05-07T04:45:14;4.47;;;2.15;;
43620;SDS011;29213;50.770;7.298;2023-05-07T04:47:40;3.40;;;2.00;;
43620;SDS011;29213;50.770;7.298;2023-05-07T04:50:06;3.20;;;1.90;;
43620;SDS011;29213;50.770;7.298;2023-05-07T04:52:33;3.95;;;2.10;;
43620;SDS011;29213;50.770;7.298;2023-05-07T04:54:59;3.60;;;2.10;;
43620;SDS011;29213;50.770;7.298;2023-05-07T04:57:25;3.08;;;1.90;;
43620;SDS011;29213;50.770;7.298;2023-05-07T04:59:51;4.55;;;2.08;;
43620;SDS011;29213;50.770;7.298;2023-05-07T05:02:17;3.90;;;2.13;;
43620;SDS011;29213;50.770;7.298;2023-05-07T05:04:42;4.40;;;1.92;;
43620;SDS011;29213;50.770;7.298;2023-05-07T05:07:08;4.22;;;2.13;;
43620;SDS011;29213;50.770;7.298;2023-05-07T05:09:33;4.57;;;2.28;;
43620;SDS011;29213;50.770;7.298;2023-05-07T05:11:59;3.50;;;2.10;;
43620;SDS011;29213;50.770;7.298;2023-05-07T05:14:25;4.60;;;2.25;;
43620;SDS011;29213;50.770;7.298;2023-05-07T05:16:50;7.03;;;2.10;;
43620;SDS011;29213;50.770;7.298;2023-05-07T05:19:15;3.35;;;1.88;;
43620;SDS011;29213;50.770;7.298;2023-05-07T05:21:41;3.40;;;2.17;;
43620;SDS011;29213;50.770;7.298;2023-05-07T05:24:06;3.72;;;2.00;;
43620;SDS011;29213;50.770;7.298;2023-05-07T05:26:32;3.75;;;2.00;;
43620;SDS011;29213;50.770;7.298;2023-05-07T05:28:57;4.72;;;2.08;;
43620;SDS011;29213;50.770;7.298;2023-05-07T05:31:23;4.85;;;2.25;;
43620;SDS011;29213;50.770;7.298;2023-05-07T05:33:48;3.65;;;1.90;;
43620;SDS011;29213;50.770;7.298;2023-05-07T05:36:13;3.33;;;2.00;;
43620;SDS011;29213;50.770;7.298;2023-05-07T05:38:39;3.60;;;2.05;;
43620;SDS011;29213;50.770;7.298;2023-05-07T05:41:05;3.53;;;2.10;;
43620;SDS011;29213;50.770;7.298;2023-05-07T05:43:30;3.30;;;1.90;;
43620;SDS011;29213;50.770;7.298;2023-05-07T05:45:56;3.95;;;2.08;;
43620;SDS011;29213;50.770;7.298;2023-05-07T05:48:22;5.47;;;1.92;;
43620;SDS011;29213;50.770;7.298;2023-05-07T05:50:48;3.15;;;1.75;;
43620;SDS011;29213;50.770;7.298;2023-05-07T05:53:13;3.40;;;1.83;;
43620;SDS011;29213;50.770;7.298;2023-05-07T05:55:39;4.75;;;2.03;;
43620;SDS011;29213;50.770;7.298;2023-05-07T05:58:04;3.53;;;2.10;;
43620;SDS011;29213;50.770;7.298;2023-05-07T06:00:30;3.50;;;1.90;;
43620;SDS011;29213;50.770;7.298;2023-05-07T06:02:55;4.75;;;1.90;;
43620;SDS011;29213;50.770;7.298;2023-05-07T06:05:21;3.30;;;1.80;;
43620;SDS011;29213;50.770;7.298;2023-05-07T06:07:46;3.90;;;2.10;;
43620;SDS011;29213;50.770;7.298;2023-05-07T06:10:12;2.70;;;1.63;;
43620;SDS011;29213;50.770;7.298;2023-05-07T06:12:37;4.18;;;1.80;;
43620;SDS011;29213;50.770;7.298;2023-05-07T06:15:03;3.22;;;1.85;;
43620;SDS011;29213;50.770;7.298;2023-05-07T06:17:28;3.22;;;1.60;;
43620;SDS011;29213;50.770;7.298;2023-05-07T06:19:54;3.08;;;1.70;;
43620;SDS011;29213;50.770;7.298;2023-05-07T06:22:19;2.97;;;1.70;;
43620;SDS011;29213;50.770;7.298;2023-05-07T06:24:45;3.75;;;1.70;;
43620;SDS011;29213;50.770;7.298;2023-05-07T06:27:11;3.42;;;1.80;;
43620;SDS011;29213;50.770;7.298;2023-05-07T06:29:36;3.33;;;2.03;;
43620;SDS011;29213;50.770;7.298;2023-05-07T06:32:08;5.35;;;1.90;;
43620;SDS011;29213;50.770;7.298;2023-05-07T06:34:35;3.38;;;1.73;;
43620;SDS011;29213;50.770;7.298;2023-05-07T06:37:02;4.28;;;1.90;;
43620;SDS011;29213;50.770;7.298;2023-05-07T06:39:27;3.45;;;2.00;;
43620;SDS011;29213;50.770;7.298;2023-05-07T06:41:58;3.40;;;1.80;;
43620;SDS011;29213;50.770;7.298;2023-05-07T06:44:24;6.07;;;1.90;;
43620;SDS011;29213;50.770;7.298;2023-05-07T06:46:50;3.03;;;1.80;;
43620;SDS011;29213;50.770;7.298;2023-05-07T06:49:15;3.05;;;1.98;;
43620;SDS011;29213;50.770;7.298;2023-05-07T06:51:41;4.43;;;1.92;;
43620;SDS011;29213;50.770;7.298;2023-05-07T06:54:06;3.65;;;1.88;;
43620;SDS011;29213;50.770;7.298;2023-05-07T06:56:32;3.72;;;1.90;;
43620;SDS011;29213;50.770;7.298;2023-05-07T06:58:59;3.78;;;2.00;;
43620;SDS011;29213;50.770;7.298;2023-05-07T07:01:26;3.95;;;1.73;;
43620;SDS011;29213;50.770;7.298;2023-05-07T07:03:52;3.67;;;1.98;;
43620;SDS011;29213;50.770;7.298;2023-05-07T07:06:17;3.40;;;2.03;;
43620;SDS011;29213;50.770;7.298;2023-05-07T07:08:42;3.13;;;1.70;;
43620;SDS011;29213;50.770;7.298;2023-05-07T07:11:08;3.20;;;1.50;;
43620;SDS011;29213;50.770;7.298;2023-05-07T07:13:35;3.08;;;1.92;;
43620;SDS011;29213;50.770;7.298;2023-05-07T07:16:01;3.83;;;1.92;;
43620;SDS011;29213;50.770;7.298;2023-05-07T07:18:26;3.20;;;1.88;;
43620;SDS011;29213;50.770;7.298;2023-05-07T07:20:52;3.25;;;1.70;;
43620;SDS011;29213;50.770;7.298;2023-05-07T07:23:17;3.53;;;1.75;;
43620;SDS011;29213;50.770;7.298;2023-05-07T07:25:42;4.85;;;2.03;;
43620;SDS011;29213;50.770;7.298;2023-05-07T07:28:08;3.28;;;1.65;;
43620;SDS011;29213;50.770;7.298;2023-05-07T07:30:33;3.22;;;1.65;;
43620;SDS011;29213;50.770;7.298;2023-05-07T07:32:59;4.45;;;2.03;;
43620;SDS011;29213;50.770;7.298;2023-05-07T07:35:28;2.90;;;1.60;;
43620;SDS011;29213;50.770;7.298;2023-05-07T07:37:54;3.10;;;1.75;;
43620;SDS011;29213;50.770;7.298;2023-05-07T07:40:20;3.25;;;1.52;;
43620;SDS011;29213;50.770;7.298;2023-05-07T07:42:45;3.28;;;1.60;;
43620;SDS011;29213;50.770;7.298;2023-05-07T07:45:11;3.35;;;1.80;;
43620;SDS011;29213;50.770;7.298;2023-05-07T07:47:36;2.70;;;1.63;;
43620;SDS011;29213;50.770;7.298;2023-05-07T07:50:02;3.00;;;1.58;;
43620;SDS011;29213;50.770;7.298;2023-05-07T07:52:28;3.75;;;1.90;;
43620;SDS011;29213;50.770;7.298;2023-05-07T07:54:53;5.28;;;1.70;;
43620;SDS011;29213;50.770;7.298;2023-05-07T07:57:18;3.03;;;1.48;;
43620;SDS011;29213;50.770;7.298;2023-05-07T07:59:44;3.88;;;1.80;;
43620;SDS011;29213;50.770;7.298;2023-05-07T08:02:09;3.00;;;1.58;;
43620;SDS011;29213;50.770;7.298;2023-05-07T08:04:35;2.67;;;1.50;;
43620;SDS011;29213;50.770;7.298;2023-05-07T08:07:02;2.88;;;1.50;;
43620;SDS011;29213;50.770;7.298;2023-05-07T08:09:27;3.72;;;1.77;;
43620;SDS011;29213;50.770;7.298;2023-05-07T08:11:52;4.28;;;1.90;;
43620;SDS011;29213;50.770;7.298;2023-05-07T08:14:18;3.75;;;1.70;;
43620;SDS011;29213;50.770;7.298;2023-05-07T08:16:43;3.15;;;1.70;;
43620;SDS011;29213;50.770;7.298;2023-05-07T08:19:09;2.90;;;1.67;;
43620;SDS011;29213;50.770;7.298;2023-05-07T08:21:38;3.17;;;1.52;;
43620;SDS011;29213;50.770;7.298;2023-05-07T08:24:04;3.30;;;1.58;;
43620;SDS011;29213;50.770;7.298;2023-05-07T08:26:30;3.60;;;1.80;;
43620;SDS011;29213;50.770;7.298;2023-05-07T08:28:55;3.35;;;1.40;;
43620;SDS011;29213;50.770;7.298;2023-05-07T08:31:20;3.58;;;1.77;;
43620;SDS011;29213;50.770;7.298;2023-05-07T08:33:46;3.08;;;1.60;;
43620;SDS011;29213;50.770;7.298;2023-05-07T08:36:11;6.05;;;1.80;;
43620;SDS011;29213;50.770;7.298;2023-05-07T08:38:36;3.05;;;1.50;;
43620;SDS011;29213;50.770;7.298;2023-05-07T08:41:02;3.50;;;1.42;;
43620;SDS011;29213;50.770;7.298;2023-05-07T08:43:27;3.30;;;1.55;;
43620;SDS011;29213;50.770;7.298;2023-05-07T08:45:54;3.35;;;1.70;;
43620;SDS011;29213;50.770;7.298;2023-05-07T08:48:21;2.60;;;1.50;;
43620;SDS011;29213;50.770;7.298;2023-05-07T08:50:50;3.00;;;1.60;;
43620;SDS011;29213;50.770;7.298;2023-05-07T08:53:16;2.92;;;1.60;;
43620;SDS011;29213;50.770;7.298;2023-05-07T08:55:42;2.65;;;1.48;;
43620;SDS011;29213;50.770;7.298;2023-05-07T08:58:07;2.60;;;1.50;;
43620;SDS011;29213;50.770;7.298;2023-05-07T09:00:32;3.25;;;1.48;;
43620;SDS011;29213;50.770;7.298;2023-05-07T09:02:58;4.72;;;1.40;;
43620;SDS011;29213;50.770;7.298;2023-05-07T09:05:25;2.70;;;1.58;;
43620;SDS011;29213;50.770;7.298;2023-05-07T09:07:50;2.30;;;1.20;;
43620;SDS011;29213;50.770;7.298;2023-05-07T09:10:16;2.78;;;1.70;;
43620;SDS011;29213;50.770;7.298;2023-05-07T09:12:41;2.95;;;1.40;;
43620;SDS011;29213;50.770;7.298;2023-05-07T09:15:07;3.25;;;1.50;;
43620;SDS011;29213;50.770;7.298;2023-05-07T09:17:33;3.08;;;1.40;;
43620;SDS011;29213;50.770;7.298;2023-05-07T09:20:02;2.83;;;1.40;;
43620;SDS011;29213;50.770;7.298;2023-05-07T09:22:33;2.80;;;1.50;;
43620;SDS011;29213;50.770;7.298;2023-05-07T09:27:24;2.95;;;1.48;;
43620;SDS011;29213;50.770;7.298;2023-05-07T09:29:50;3.13;;;1.60;;
43620;SDS011;29213;50.770;7.298;2023-05-07T09:32:16;2.85;;;1.60;;
43620;SDS011;29213;50.770;7.298;2023-05-07T09:34:42;2.90;;;1.50;;
43620;SDS011;29213;50.770;7.298;2023-05-07T09:37:07;3.90;;;1.70;;
43620;SDS011;29213;50.770;7.298;2023-05-07T09:39:42;2.75;;;1.45;;
43620;SDS011;29213;50.770;7.298;2023-05-07T09:42:12;2.97;;;1.52;;
43620;SDS011;29213;50.770;7.298;2023-05-07T09:44:40;3.28;;;1.48;;
43620;SDS011;29213;50.770;7.298;2023-05-07T09:47:06;3.58;;;1.65;;
43620;SDS011;29213;50.770;7.298;2023-05-07T09:49:34;3.53;;;1.60;;
43620;SDS011;29213;50.770;7.298;2023-05-07T09:52:04;4.28;;;1.55;;
43620;SDS011;29213;50.770;7.298;2023-05-07T09:54:32;3.72;;;1.67;;
43620;SDS011;29213;50.770;7.298;2023-05-07T09:56:58;2.80;;;1.40;;
43620;SDS011;29213;50.770;7.298;2023-05-07T09:59:24;2.85;;;1.58;;
43620;SDS011;29213;50.770;7.298;2023-05-07T10:01:51;3.22;;;1.40;;
43620;SDS011;29213;50.770;7.298;2023-05-07T10:04:18;3.08;;;1.20;;
43620;SDS011;29213;50.770;7.298;2023-05-07T10:06:44;2.83;;;1.50;;
43620;SDS011;29213;50.770;7.298;2023-05-07T10:09:11;3.90;;;1.60;;
43620;SDS011;29213;50.770;7.298;2023-05-07T10:11:37;2.72;;;1.40;;
43620;SDS011;29213;50.770;7.298;2023-05-07T10:14:04;4.38;;;1.52;;
43620;SDS011;29213;50.770;7.298;2023-05-07T10:16:33;3.95;;;1.80;;
43620;SDS011;29213;50.770;7.298;2023-05-07T10:19:04;2.97;;;1.35;;
43620;SDS011;29213;50.770;7.298;2023-05-07T10:21:31;2.78;;;1.30;;
43620;SDS011;29213;50.770;7.298;2023-05-07T10:24:07;2.50;;;1.40;;
43620;SDS011;29213;50.770;7.298;2023-05-07T10:26:40;4.28;;;1.40;;
43620;SDS011;29213;50.770;7.298;2023-05-07T10:29:17;2.17;;;1.23;;
43620;SDS011;29213;50.770;7.298;2023-05-07T10:34:21;3.83;;;1.50;;
43620;SDS011;29213;50.770;7.298;2023-05-07T10:36:51;2.92;;;1.25;;
43620;SDS011;29213;50.770;7.298;2023-05-07T10:39:17;2.80;;;1.40;;
43620;SDS011;29213;50.770;7.298;2023-05-07T10:41:45;2.47;;;1.20;;
43620;SDS011;29213;50.770;7.298;2023-05-07T10:44:10;2.40;;;1.08;;
43620;SDS011;29213;50.770;7.298;2023-05-07T10:46:36;2.33;;;1.10;;
43620;SDS011;29213;50.770;7.298;2023-05-07T10:51:33;3.20;;;1.33;;
43620;SDS011;29213;50.770;7.298;2023-05-07T10:56:35;2.38;;;1.20;;
43620;SDS011;29213;50.770;7.298;2023-05-07T11:01:52;2.50;;;1.40;;
43620;SDS011;29213;50.770;7.298;2023-05-07T11:04:24;3.03;;;0.90;;
43620;SDS011;29213;50.770;7.298;2023-05-07T11:15:06;2.42;;;1.10;;
43620;SDS011;29213;50.770;7.298;2023-05-07T11:17:33;2.00;;;1.00;;
43620;SDS011;29213;50.770;7.298;2023-05-07T11:20:00;3.17;;;1.13;;
43620;SDS011;29213;50.770;7.298;2023-05-07T11:24:55;1.35;;;0.77;;
43620;SDS011;29213;50.770;7.298;2023-05-07T11:27:23;2.45;;;1.10;;
43620;SDS011;29213;50.770;7.298;2023-05-07T11:32:22;3.13;;;1.00;;
43620;SDS011;29213;50.770;7.298;2023-05-07T11:34:52;2.20;;;1.00;;
43620;SDS011;29213;50.770;7.298;2023-05-07T11:37:19;2.00;;;0.90;;
43620;SDS011;29213;50.770;7.298;2023-05-07T11:39:45;2.53;;;1.02;;
43620;SDS011;29213;50.770;7.298;2023-05-07T11:42:32;2.90;;;1.05;;
43620;SDS011;29213;50.770;7.298;2023-05-07T11:44:57;2.70;;;1.10;;
43620;SDS011;29213;50.770;7.298;2023-05-07T11:47:23;2.03;;;1.00;;
43620;SDS011;29213;50.770;7.298;2023-05-07T11:49:50;2.03;;;1.08;;
43620;SDS011;29213;50.770;7.298;2023-05-07T11:52:17;2.65;;;1.20;;
43620;SDS011;29213;50.770;7.298;2023-05-07T11:54:53;2.47;;;1.00;;
43620;SDS011;29213;50.770;7.298;2023-05-07T11:57:21;3.33;;;1.20;;
43620;SDS011;29213;50.770;7.298;2023-05-07T11:59:56;2.28;;;1.00;;
43620;SDS011;29213;50.770;7.298;2023-05-07T12:02:21;2.75;;;1.10;;
43620;SDS011;29213;50.770;7.298;2023-05-07T12:04:47;2.03;;;1.00;;
43620;SDS011;29213;50.770;7.298;2023-05-07T12:07:13;2.42;;;1.13;;
43620;SDS011;29213;50.770;7.298;2023-05-07T12:09:40;2.03;;;0.98;;
43620;SDS011;29213;50.770;7.298;2023-05-07T12:12:06;2.08;;;1.00;;
43620;SDS011;29213;50.770;7.298;2023-05-07T12:14:32;2.10;;;0.93;;
43620;SDS011;29213;50.770;7.298;2023-05-07T12:16:58;1.60;;;1.00;;
43620;SDS011;29213;50.770;7.298;2023-05-07T12:19:28;2.72;;;1.25;;
43620;SDS011;29213;50.770;7.298;2023-05-07T12:21:55;3.60;;;1.55;;
43620;SDS011;29213;50.770;7.298;2023-05-07T12:24:21;2.58;;;1.45;;
43620;SDS011;29213;50.770;7.298;2023-05-07T12:26:47;3.80;;;1.27;;
43620;SDS011;29213;50.770;7.298;2023-05-07T12:29:13;3.38;;;1.20;;
43620;SDS011;29213;50.770;7.298;2023-05-07T12:31:42;2.58;;;1.10;;
43620;SDS011;29213;50.770;7.298;2023-05-07T12:34:10;2.83;;;1.23;;
43620;SDS011;29213;50.770;7.298;2023-05-07T12:36:39;2.80;;;1.10;;
43620;SDS011;29213;50.770;7.298;2023-05-07T12:39:06;3.65;;;1.13;;
43620;SDS011;29213;50.770;7.298;2023-05-07T12:44:23;4.00;;;1.50;;
43620;SDS011;29213;50.770;7.298;2023-05-07T12:46:50;4.88;;;1.60;;
43620;SDS011;29213;50.770;7.298;2023-05-07T12:49:16;3.67;;;1.48;;
43620;SDS011;29213;50.770;7.298;2023-05-07T12:51:46;3.90;;;1.70;;
43620;SDS011;29213;50.770;7.298;2023-05-07T12:54:13;3.30;;;1.70;;
43620;SDS011;29213;50.770;7.298;2023-05-07T12:56:39;4.82;;;1.75;;
43620;SDS011;29213;50.770;7.298;2023-05-07T12:59:05;4.28;;;2.40;;
43620;SDS011;29213;50.770;7.298;2023-05-07T13:01:30;4.38;;;2.35;;
43620;SDS011;29213;50.770;7.298;2023-05-07T13:04:04;4.63;;;2.90;;
43620;SDS011;29213;50.770;7.298;2023-05-07T13:06:30;5.18;;;2.00;;
43620;SDS011;29213;50.770;7.298;2023-05-07T13:08:56;4.65;;;1.90;;
43620;SDS011;29213;50.770;7.298;2023-05-07T13:11:22;3.75;;;1.60;;
43620;SDS011;29213;50.770;7.298;2023-05-07T13:13:47;3.75;;;1.73;;
43620;SDS011;29213;50.770;7.298;2023-05-07T13:16:13;3.50;;;1.83;;
43620;SDS011;29213;50.770;7.298;2023-05-07T13:18:38;3.83;;;1.90;;
43620;SDS011;29213;50.770;7.298;2023-05-07T13:21:05;3.08;;;1.80;;
43620;SDS011;29213;50.770;7.298;2023-05-07T13:23:31;4.45;;;1.60;;
43620;SDS011;29213;50.770;7.298;2023-05-07T13:25:56;3.58;;;1.77;;
43620;SDS011;29213;50.770;7.298;2023-05-07T13:28:22;3.63;;;1.70;;
43620;SDS011;29213;50.770;7.298;2023-05-07T13:30:49;3.97;;;2.03;;
43620;SDS011;29213;50.770;7.298;2023-05-07T13:33:16;3.65;;;1.70;;
43620;SDS011;29213;50.770;7.298;2023-05-07T13:35:42;2.90;;;1.67;;
43620;SDS011;29213;50.770;7.298;2023-05-07T13:38:08;4.03;;;1.83;;
43620;SDS011;29213;50.770;7.298;2023-05-07T13:40:33;3.08;;;1.67;;
43620;SDS011;29213;50.770;7.298;2023-05-07T13:42:59;4.45;;;1.80;;
43620;SDS011;29213;50.770;7.298;2023-05-07T13:47:57;4.13;;;2.00;;
43620;SDS011;29213;50.770;7.298;2023-05-07T13:50:23;4.90;;;1.70;;
43620;SDS011;29213;50.770;7.298;2023-05-07T13:52:48;3.17;;;1.58;;
43620;SDS011;29213;50.770;7.298;2023-05-07T13:55:17;3.10;;;1.67;;
43620;SDS011;29213;50.770;7.298;2023-05-07T13:57:43;2.95;;;1.33;;
43620;SDS011;29213;50.770;7.298;2023-05-07T14:00:10;2.92;;;1.42;;
43620;SDS011;29213;50.770;7.298;2023-05-07T14:02:36;2.90;;;1.50;;
43620;SDS011;29213;50.770;7.298;2023-05-07T14:05:02;3.60;;;1.70;;
43620;SDS011;29213;50.770;7.298;2023-05-07T14:07:27;3.00;;;1.52;;
43620;SDS011;29213;50.770;7.298;2023-05-07T14:09:53;2.95;;;1.40;;
43620;SDS011;29213;50.770;7.298;2023-05-07T14:12:19;3.67;;;1.70;;
43620;SDS011;29213;50.770;7.298;2023-05-07T14:14:45;2.83;;;1.30;;
43620;SDS011;29213;50.770;7.298;2023-05-07T14:17:11;3.67;;;1.38;;
43620;SDS011;29213;50.770;7.298;2023-05-07T14:19:37;3.08;;;1.42;;
43620;SDS011;29213;50.770;7.298;2023-05-07T14:22:03;2.95;;;1.30;;
43620;SDS011;29213;50.770;7.298;2023-05-07T14:24:28;2.55;;;1.20;;
43620;SDS011;29213;50.770;7.298;2023-05-07T14:26:53;2.22;;;1.25;;
43620;SDS011;29213;50.770;7.298;2023-05-07T14:29:19;2.50;;;1.20;;
43620;SDS011;29213;50.770;7.298;2023-05-07T14:31:44;2.35;;;1.10;;
43620;SDS011;29213;50.770;7.298;2023-05-07T14:34:10;2.10;;;1.15;;
43620;SDS011;29213;50.770;7.298;2023-05-07T14:36:36;2.78;;;1.40;;
43620;SDS011;29213;50.770;7.298;2023-05-07T14:39:02;2.95;;;1.30;;
43620;SDS011;29213;50.770;7.298;2023-05-07T14:41:28;2.13;;;1.10;;
43620;SDS011;29213;50.770;7.298;2023-05-07T14:43:53;2.95;;;1.50;;
43620;SDS011;29213;50.770;7.298;2023-05-07T14:46:19;3.63;;;1.60;;
43620;SDS011;29213;50.770;7.298;2023-05-07T14:48:45;3.53;;;1.80;;
43620;SDS011;29213;50.770;7.298;2023-05-07T14:51:11;3.80;;;1.75;;
43620;SDS011;29213;50.770;7.298;2023-05-07T14:53:37;3.90;;;2.15;;
43620;SDS011;29213;50.770;7.298;2023-05-07T14:56:03;4.85;;;2.10;;
43620;SDS011;29213;50.770;7.298;2023-05-07T14:58:28;3.75;;;1.83;;
43620;SDS011;29213;50.770;7.298;2023-05-07T15:00:54;2.90;;;1.60;;
43620;SDS011;29213;50.770;7.298;2023-05-07T15:03:19;3.22;;;1.52;;
43620;SDS011;29213;50.770;7.298;2023-05-07T15:05:45;2.90;;;1.60;;
43620;SDS011;29213;50.770;7.298;2023-05-07T15:08:11;3.17;;;1.52;;
43620;SDS011;29213;50.770;7.298;2023-05-07T15:10:36;4.45;;;2.22;;
43620;SDS011;29213;50.770;7.298;2023-05-07T15:13:06;3.55;;;2.10;;